Home > Products > Valid Products > MTR

000
SAUS46 KPQR 010553
MTRREO
METAR KREO 010552Z AUTO 27007KT 06/01 A3008 RMK AO1 SLP182 T00610006
10150 20056 51009





000
SAUS46 KPQR 010453
MTRREO
METAR KREO 010452Z AUTO 30005KT 07/01 A3007 RMK AO1 SLP180 T00670011





000
SAUS46 KPQR 010353
MTRREO
METAR KREO 010352Z AUTO 25003KT 07/01 A3006 RMK AO1 SLP177 T00720006





000
SAUS46 KPQR 010253
MTRREO
METAR KREO 010252Z AUTO 29008KT 08/01 A3005 RMK AO1 SLP170 T00830011
53010





000
SAUS46 KPQR 010153
MTRREO
METAR KREO 010152Z AUTO 31004KT 11/01 A3003 RMK AO1 SLP159 T01060006





000
SAUS46 KPQR 010053
MTRREO
METAR KREO 010052Z AUTO 28011KT 14/M01 A3002 RMK AO1 SLP152
T01391006





000
SAUS46 KPQR 302353
MTRREO
METAR KREO 302352Z AUTO 28012G24KT 15/M01 A3002 RMK AO1 PK WND
29026/2339 SLP148 T01501006 10161 20117 55002





000
SAUS46 KPQR 302253
MTRREO
METAR KREO 302252Z AUTO 29014KT 16/M01 A3002 RMK AO1 SLP145
T01611006





000
SAUS46 KPQR 302155
MTRREO
METAR KREO 302152Z AUTO 29007G16KT 16/00 A3002 RMK AO1 SLP148
T01560000





000
SAUS46 KPQR 302053
MTRREO
METAR KREO 302052Z AUTO 36009G16KT 15/02 A3003 RMK AO1 SLP150
T01500017 58008





000
SAUS46 KPQR 301953
MTRREO
METAR KREO 301952Z AUTO 36015KT 14/02 A3004 RMK AO1 SLP157 T01390022





000
SAUS46 KPQR 301853
MTRREO
METAR KREO 301852Z AUTO 35010G19KT 13/02 A3005 RMK AO1 SLP160
T01330017





000
SAUS46 KPQR 301753
MTRREO
METAR KREO 301752Z AUTO 36010KT 12/02 A3005 RMK AO1 SLP164 T01220017
10128 20094 51008





000
SAUS46 KPQR 301653
MTRREO
METAR KREO 301652Z AUTO 31009KT 11/02 A3005 RMK AO1 SLP165 T01110022





000
SAUS46 KPQR 301553
MTRREO
METAR KREO 301552Z AUTO 30007KT 10/03 A3004 RMK AO1 SLP163 T01000028
$





000
SAUS46 KPQR 301453
MTRREO
METAR KREO 301452Z AUTO 26009KT 11/05 A3003 RMK AO1 SLP156 T01110050
53015





000
SAUS46 KPQR 301353
MTRREO
METAR KREO 301352Z AUTO 00000KT 11/06 A3000 RMK AO1 SLP145 T01110061





000
SAUS46 KPQR 301259
MTRREO
METAR KREO 301252Z AUTO 25004KT 10/06 A2997 RMK AO1 SLP137 T01000061





000
SAUS46 KPQR 301153
MTRREO
METAR KREO 301152Z AUTO 34004KT 12/07 A2997 RMK AO1 SLP134 70049
T01220072 10133 20111 53005





000
SAUS46 KPQR 301053
MTRREO
METAR KREO 301052Z AUTO 26007KT 12/07 A2997 RMK AO1 SLP131 T01220067





000
SAUS46 KPQR 300953
MTRREO
METAR KREO 300952Z AUTO 20006KT 12/07 A2996 RMK AO1 SLP133 T01170072





000
SAUS46 KPQR 300853
MTRREO
METAR KREO 300852Z AUTO 21005KT 13/07 A2996 RMK AO1 SLP129 T01280072
52001





000
SAUS46 KPQR 300753
MTRREO
METAR KREO 300752Z AUTO 21006KT 12/08 A2996 RMK AO1 SLP130 T01220083
401500111





000
SAUS46 KPQR 300653
MTRREO
METAR KREO 300652Z AUTO 21004KT 12/09 A2995 RMK AO1 SLP128 T01220089





000
SAUS46 KPQR 300553
MTRREO
METAR KREO 300552Z AUTO 18006KT 12/08 A2995 RMK AO1 SLP131 T01220083
10150 20122 55000





000
SAUS46 KPQR 300453
MTRREO
METAR KREO 300452Z AUTO 14013G20KT 12/09 A2995 RMK AO1 SLP129
T01220089





000
SAUS46 KPQR 300353
MTRREO
METAR KREO 300352Z AUTO 14013KT 12/08 A2995 RMK AO1 SLP130 T01220083





000
SAUS46 KPQR 300253
MTRREO
METAR KREO 300252Z AUTO 13011KT 12/09 A2995 RMK AO1 SLP132 T01220089
58007





000
SAUS46 KPQR 300153
MTRREO
METAR KREO 300152Z AUTO 15007KT 13/09 A2997 RMK AO1 SLP135 T01330094





000
SAUS46 KPQR 300058 COR
MTRREO
METAR KREO 300052Z AUTO 10004KT 14/08 A2997 RMK AO1 SLP133 T01440083





000
SAUS46 KPQR 300054 COR
MTRREO
METAR KREO 300052Z AUTO 10004KT 14/08 A2997 RMK AO1 SLP133 T01440083





000
SAUS46 KPQR 300054
MTRREO
METAR KREO 300052Z AUTO 10004KT 14/08 A2997 RMK AO1 SLP133 T01440083





000
SAUS46 KPQR 292353
MTRREO
METAR KREO 292352Z AUTO 13003KT 14/09 A2998 RMK AO1 SLP136 60009
T01440089 10150 20111 56007





000
SAUS46 KPQR 292253
MTRREO
METAR KREO 292252Z AUTO 00000KT 14/09 A2999 RMK AO1 SLP138 T01390094





000
SAUS46 KPQR 292153
MTRREO
METAR KREO 292152Z AUTO 00000KT 12/09 A3000 RMK AO1 SLP142 P0004
T01220094





000
SAUS46 KPQR 292053
MTRREO
METAR KREO 292052Z AUTO 27006KT 12/09 A3000 RMK AO1 SLP145 P0002
60005 T01220094 51007





000
SAUS46 KPQR 291953
MTRREO
METAR KREO 291952Z AUTO 27006KT 13/09 A2999 RMK AO1 SLP142 P0001
T01280094





000
SAUS46 KPQR 291853
MTRREO
METAR KREO 291852Z AUTO 26007KT 12/09 A2999 RMK AO1 SLP141 P0002
T01220094





000
SAUS46 KPQR 291757
MTRREO
METAR KREO 291752Z AUTO 26008KT 11/09 A2998 RMK AO1 SLP139 P0005
60040 T01110094 10117 20111 53012





000
SAUS46 KPQR 291653
MTRREO
METAR KREO 291652Z AUTO 24005KT 11/09 A2997 RMK AO1 SLP134 P0004
T01110089





000
SAUS46 KPQR 291553
MTRREO
METAR KREO 291552Z AUTO 24006KT 11/09 A2995 RMK AO1 SLP126 P0006
T01110089





000
SAUS46 KPQR 291453
MTRREO
METAR KREO 291452Z AUTO 23006KT 11/09 A2994 RMK AO1 SLP124 P0007
60025 T01110094 53012





000
SAUS46 KPQR 291353
MTRREO
METAR KREO 291352Z AUTO 24007KT 11/09 A2993 RMK AO1 SLP117 P0008
T01110094





000
SAUS46 KPQR 291257
MTRREO
METAR KREO 291252Z AUTO 23011KT 12/10 A2992 RMK AO1 SLP110 P0010
T01170100





000
SAUS46 KPQR 291153
MTRREO
METAR KREO 291152Z AUTO 23006KT 12/10 A2990 RMK AO1 SLP105 P0011
60015 70023 T01170100 10139 20117 56006





000
SAUS46 KPQR 291053
MTRREO
METAR KREO 291052Z AUTO 22011KT 12/11 A2991 RMK AO1 SLP106 P0004
T01220106





000
SAUS46 KPQR 290953
MTRREO
METAR KREO 290952Z AUTO 21010KT 13/09 A2991 RMK AO1 SLP106 T01280094





000
SAUS46 KPQR 290853
MTRREO
METAR KREO 290852Z AUTO 17006KT 13/08 A2992 RMK AO1 SLP108 T01330078
56007





000
SAUS46 KPQR 290753
MTRREO
METAR KREO 290752Z AUTO 14012KT 13/08 A2992 RMK AO1 SLP113 T01280078
401940089





000
SAUS46 KPQR 290653
MTRREO
METAR KREO 290652Z AUTO 14012KT 13/08 A2994 RMK AO1 SLP118 T01330078





000
SAUS46 KPQR 290553
MTRREO
METAR KREO 290552Z AUTO 13007KT 13/10 A2995 RMK AO1 SLP121 T01330100
10178 20122 50000





000
SAUS46 KPQR 290453
MTRREO
METAR KREO 290452Z AUTO 13004KT 13/10 A2995 RMK AO1 SLP127 T01330100





000
SAUS46 KPQR 290353
MTRREO
METAR KREO 290352Z AUTO 05003KT 14/10 A2996 RMK AO1 SLP128 T01440100





000
SAUS46 KPQR 290253
MTRREO
METAR KREO 290252Z AUTO 03005KT 14/10 A2995 RMK AO1 SLP127 T01440100
53006





000
SAUS46 KPQR 290153
MTRREO
METAR KREO 290152Z AUTO 36005KT 16/09 A2993 RMK AO1 SLP121 T01560094





000
SAUS46 KPQR 290053
MTRREO
METAR KREO 290052Z AUTO 34009KT 17/09 A2993 RMK AO1 SLP118 T01670089





000
SAUS46 KPQR 282353
MTRREO
METAR KREO 282352Z AUTO 36010KT 18/09 A2993 RMK AO1 SLP114 T01780089
10194 20150 55002





000
SAUS46 KPQR 282253
MTRREO
METAR KREO 282252Z AUTO 35004KT 18/08 A2991 RMK AO1 SLP107 T01830078





000
SAUS46 KPQR 282153
MTRREO
METAR KREO 282152Z AUTO 36005KT 18/08 A2992 RMK AO1 SLP112 T01830078





000
SAUS46 KPQR 282053
MTRREO
METAR KREO 282052Z AUTO 35007KT 310V040 18/09 A2993 RMK AO1 SLP116
T01830094 58002





000
SAUS46 KPQR 281953
MTRREO
METAR KREO 281952Z AUTO VRB05KT 17/09 A2995 RMK AO1 SLP123 T01670089





000
SAUS46 KPQR 281855
MTRREO
METAR KREO 281852Z AUTO 00000KT 17/08 A2995 RMK AO1 SLP124 T01670083





000
SAUS46 KPQR 281753
MTRREO
METAR KREO 281752Z AUTO 00000KT 16/08 A2994 RMK AO1 SLP123 60008
T01560083 10156 20089 50004





000
SAUS46 KPQR 281653
MTRREO
METAR KREO 281652Z AUTO 16004KT 13/07 A2994 RMK AO1 SLP126 T01330072





000
SAUS46 KPQR 281553
MTRREO
METAR KREO 281552Z AUTO 19006KT 11/07 A2993 RMK AO1 SLP125 T01060072





000
SAUS46 KPQR 281453
MTRREO
METAR KREO 281452Z AUTO 00000KT 10/08 A2993 RMK AO1 SLP123 60008
T01000078 53013





000
SAUS46 KPQR 281353
MTRREO
METAR KREO 281352Z AUTO 22003KT 09/08 A2990 RMK AO1 SLP116 T00940078





000
SAUS46 KPQR 281258
MTRREO
METAR KREO 281252Z AUTO 20004KT 10/07 A2990 RMK AO1 WSHFT 1140
SLP112 P0008 T01000072





000
SAUS46 KPQR 281158
MTRREO
SPECI KREO 281157Z AUTO 11012G23KT 10/08 A2989 RMK AO1 WSHFT 1140
P0002 T01000078





000
SAUS46 KPQR 281153
MTRREO
METAR KREO 281152Z AUTO 13016G23KT 11/07 A2989 RMK AO1 SLP106 70022
T01060072 10117 20106 53006





000
SAUS46 KPQR 281053
MTRREO
METAR KREO 281052Z AUTO 01007G15KT 11/08 A2985 RMK AO1 SLP096
T01110078





000
SAUS46 KPQR 280953
MTRREO
METAR KREO 280952Z AUTO 36010KT 11/08 A2986 RMK AO1 SLP099 T01110083





000
SAUS46 KPQR 280853
MTRREO
METAR KREO 280852Z AUTO 36010KT 11/08 A2987 RMK AO1 SLP100 T01110083
58001





000
SAUS46 KPQR 280753
MTRREO
METAR KREO 280752Z AUTO 36010KT 11/08 A2987 RMK AO1 SLP099 T01110083
401560100





000
SAUS46 KPQR 280653
MTRREO
METAR KREO 280652Z AUTO 36010KT 11/09 A2987 RMK AO1 SLP099 T01110089





    US Dept of Commerce
    National Oceanic and Atmospheric Administration
    National Weather Service
    1325 East West Highway
    Silver Spring, MD 20910
    Page Author: NWS Internet Services Team
Disclaimer
Information Quality
Credits
Glossary
Privacy Policy
Freedom of Information Act (FOIA)
About Us
Career Opportunities